createdAt,value
2022-10-22T00:01:04.307Z,8.55
2022-10-22T00:03:37.401Z,8.50
2022-10-22T00:06:07.123Z,8.46
2022-10-22T00:08:36.051Z,8.43
2022-10-22T00:11:10.222Z,8.39
2022-10-22T00:13:37.048Z,8.36
2022-10-22T00:16:07.738Z,8.32
2022-10-22T00:18:34.833Z,8.30
2022-10-22T00:21:01.842Z,8.28
2022-10-22T00:23:34.384Z,8.26
2022-10-22T00:26:01.374Z,8.25
2022-10-22T00:28:28.217Z,8.24
2022-10-22T00:31:01.307Z,8.23
2022-10-22T00:33:29.275Z,8.21
2022-10-22T00:35:56.170Z,8.19
2022-10-22T00:38:53.518Z,8.18
2022-10-22T00:41:20.382Z,8.18
2022-10-22T00:44:01.109Z,8.22
2022-10-22T00:46:28.305Z,8.25
2022-10-22T00:48:58.454Z,8.28
2022-10-22T00:51:26.701Z,8.31
2022-10-22T00:53:56.829Z,8.34
2022-10-22T00:56:24.060Z,8.37
2022-10-22T00:58:56.558Z,8.38
2022-10-22T01:01:29.799Z,8.37
2022-10-22T01:03:56.768Z,8.36
2022-10-22T01:06:28.362Z,8.36
2022-10-22T01:09:11.945Z,8.34
2022-10-22T01:11:47.437Z,8.31
2022-10-22T01:14:34.438Z,8.28
2022-10-22T01:17:22.242Z,8.25
2022-10-22T01:19:48.984Z,8.19
2022-10-22T01:22:30.787Z,8.16
2022-10-22T01:25:16.489Z,8.12
2022-10-22T01:27:56.731Z,8.09
2022-10-22T01:30:25.407Z,8.05
2022-10-22T01:32:54.191Z,8.02
2022-10-22T01:35:41.236Z,7.99
2022-10-22T01:38:10.541Z,7.97
2022-10-22T01:40:37.898Z,7.94
2022-10-22T01:43:05.869Z,7.93
2022-10-22T01:45:34.258Z,7.92
2022-10-22T01:48:00.879Z,7.90
2022-10-22T01:50:27.557Z,7.88
2022-10-22T01:53:27.919Z,7.85
2022-10-22T01:55:59.559Z,7.83
2022-10-22T01:58:44.811Z,7.78
2022-10-22T02:01:23.293Z,7.74
2022-10-22T02:04:01.193Z,7.71
2022-10-22T02:06:30.719Z,7.73
2022-10-22T02:08:58.751Z,7.76
2022-10-22T02:11:30.153Z,7.79
2022-10-22T02:14:00.860Z,7.82
2022-10-22T02:16:35.985Z,7.83
2022-10-22T02:19:05.425Z,7.82
2022-10-22T02:21:32.115Z,7.81
2022-10-22T02:23:58.809Z,7.82
2022-10-22T02:26:37.064Z,7.79
2022-10-22T02:29:20.041Z,7.77
2022-10-22T02:31:48.292Z,7.76
2022-10-22T02:34:18.232Z,7.73
2022-10-22T02:36:48.243Z,7.69
2022-10-22T02:39:20.962Z,7.65
2022-10-22T02:41:49.273Z,7.64
2022-10-22T02:44:21.229Z,7.64
2022-10-22T02:46:50.997Z,7.64
2022-10-22T02:49:20.266Z,7.64
2022-10-22T02:51:47.557Z,7.63
2022-10-22T02:54:14.450Z,7.62
2022-10-22T02:56:44.006Z,7.64
2022-10-22T02:59:10.726Z,7.64
2022-10-22T03:01:37.407Z,7.61
2022-10-22T03:04:04.984Z,7.54
2022-10-22T03:06:31.866Z,7.49
2022-10-22T03:08:58.532Z,7.45
2022-10-22T03:11:25.310Z,7.38
2022-10-22T03:13:56.015Z,7.36
2022-10-22T03:16:22.726Z,7.36
2022-10-22T03:18:49.988Z,7.36
2022-10-22T03:21:35.198Z,7.38
2022-10-22T03:24:05.334Z,7.39
2022-10-22T03:26:32.809Z,7.38
2022-10-22T03:29:00.382Z,7.38
2022-10-22T03:31:28.254Z,7.38
2022-10-22T03:33:54.956Z,7.39
2022-10-22T03:36:22.050Z,7.35
2022-10-22T03:38:49.313Z,7.29
2022-10-22T03:41:16.458Z,7.24
2022-10-22T03:43:48.954Z,7.20
2022-10-22T03:46:15.850Z,7.13
2022-10-22T03:48:42.591Z,7.06
2022-10-22T03:51:09.917Z,6.99
2022-10-22T03:53:38.925Z,6.92
2022-10-22T03:56:09.972Z,6.83
2022-10-22T03:58:40.336Z,6.76
2022-10-22T04:01:11.992Z,6.70
2022-10-22T04:03:38.922Z,6.65
2022-10-22T04:06:12.706Z,6.60
2022-10-22T04:08:40.282Z,6.56
2022-10-22T04:11:07.402Z,6.52
2022-10-22T04:13:34.806Z,6.49
2022-10-22T04:16:07.959Z,6.48
2022-10-22T04:18:35.229Z,6.46
2022-10-22T04:21:03.308Z,6.42
2022-10-22T04:23:29.778Z,6.37
2022-10-22T04:25:59.732Z,6.34
2022-10-22T04:28:26.444Z,6.30
2022-10-22T04:30:55.436Z,6.35
2022-10-22T04:33:23.780Z,6.29
2022-10-22T04:35:50.650Z,6.37
2022-10-22T04:38:18.977Z,6.42
2022-10-22T04:40:46.054Z,6.48
2022-10-22T04:43:13.165Z,6.52
2022-10-22T04:45:48.605Z,6.53
2022-10-22T04:48:15.239Z,6.52
2022-10-22T04:50:43.816Z,6.53
2022-10-22T04:53:10.602Z,6.55
2022-10-22T04:55:37.650Z,6.56
2022-10-22T04:58:06.842Z,6.57
2022-10-22T05:00:33.468Z,6.59
2022-10-22T05:03:00.184Z,6.61
2022-10-22T05:05:26.954Z,6.63
2022-10-22T05:07:53.573Z,6.63
2022-10-22T05:10:20.233Z,6.64
2022-10-22T05:12:49.734Z,6.67
2022-10-22T05:15:16.529Z,6.70
2022-10-22T05:17:43.358Z,6.74
2022-10-22T05:20:11.209Z,6.75
2022-10-22T05:22:37.850Z,6.80
2022-10-22T05:25:04.967Z,6.83
2022-10-22T05:27:31.922Z,6.84
2022-10-22T05:30:02.714Z,6.84
2022-10-22T05:32:29.387Z,6.85
2022-10-22T05:34:56.140Z,6.85
2022-10-22T05:37:24.347Z,6.87
2022-10-22T05:40:01.774Z,6.87
2022-10-22T05:42:41.594Z,6.89
2022-10-22T05:45:08.598Z,6.93
2022-10-22T05:47:35.340Z,6.99
2022-10-22T05:50:02.479Z,7.05
2022-10-22T05:52:30.736Z,7.10
2022-10-22T05:54:59.973Z,7.14
2022-10-22T05:57:26.874Z,7.14
2022-10-22T05:59:53.672Z,7.15
2022-10-22T06:02:23.393Z,7.14
2022-10-22T06:04:49.994Z,7.13
2022-10-22T06:07:16.583Z,7.11
2022-10-22T06:09:43.246Z,7.10
2022-10-22T06:12:12.186Z,7.08
2022-10-22T06:14:38.958Z,7.12
2022-10-22T06:17:05.591Z,7.17
2022-10-22T06:19:32.592Z,7.20
2022-10-22T06:21:59.305Z,7.26
2022-10-22T06:24:25.968Z,7.35
2022-10-22T06:26:52.751Z,7.46
2022-10-22T06:29:19.560Z,7.54
2022-10-22T06:31:46.196Z,7.61
2022-10-22T06:34:13.644Z,7.70
2022-10-22T06:39:14.542Z,7.91
2022-10-22T06:41:41.476Z,7.99
2022-10-22T06:44:13.248Z,8.07
2022-10-22T06:46:43.402Z,8.11
2022-10-22T06:49:13.964Z,8.17
2022-10-22T06:51:40.799Z,8.24
2022-10-22T06:54:08.726Z,8.28
2022-10-22T06:56:35.520Z,8.33
2022-10-22T06:59:02.577Z,8.40
2022-10-22T07:01:30.983Z,8.47
2022-10-22T07:03:58.091Z,8.52
2022-10-22T07:06:25.552Z,8.59
2022-10-22T07:08:53.118Z,8.61
2022-10-22T07:11:30.506Z,8.63
2022-10-22T07:13:58.075Z,8.65
2022-10-22T07:16:29.577Z,8.66
2022-10-22T07:18:59.668Z,8.69
2022-10-22T07:21:26.386Z,8.71
2022-10-22T07:23:53.924Z,8.71
2022-10-22T07:26:24.901Z,8.72
2022-10-22T07:28:52.827Z,8.79
2022-10-22T07:31:19.397Z,8.85
2022-10-22T07:33:46.117Z,8.94
2022-10-22T07:36:17.312Z,9.05
2022-10-22T07:38:47.439Z,9.17
2022-10-22T07:41:15.599Z,9.27
2022-10-22T07:43:42.815Z,9.40
2022-10-22T07:46:09.435Z,9.52
2022-10-22T07:48:38.879Z,9.65
2022-10-22T07:51:05.497Z,9.78
2022-10-22T07:53:32.146Z,9.92
2022-10-22T07:55:59.089Z,10.06
2022-10-22T07:58:25.736Z,10.20
2022-10-22T08:00:54.831Z,10.33
2022-10-22T08:03:21.410Z,10.47
2022-10-22T08:05:48.241Z,10.60
2022-10-22T08:08:15.753Z,10.73
2022-10-22T08:10:42.882Z,10.88
2022-10-22T08:13:09.546Z,11.03
2022-10-22T08:15:36.148Z,11.18
2022-10-22T08:18:04.107Z,11.35
2022-10-22T08:20:30.797Z,11.51
2022-10-22T08:22:58.175Z,11.68
2022-10-22T08:25:25.038Z,11.85
2022-10-22T08:27:51.861Z,12.02
2022-10-22T08:30:19.436Z,12.19
2022-10-22T08:32:46.157Z,12.39
2022-10-22T08:35:15.384Z,12.60
2022-10-22T08:37:45.524Z,12.82
2022-10-22T08:40:24.951Z,13.02
2022-10-22T08:43:17.742Z,13.32
2022-10-22T08:45:44.352Z,13.62
2022-10-22T08:48:21.932Z,13.92
2022-10-22T08:50:51.230Z,14.23
2022-10-22T08:53:20.246Z,14.54
2022-10-22T08:55:49.209Z,14.83
2022-10-22T08:58:21.954Z,15.10
2022-10-22T09:00:55.890Z,15.35
2022-10-22T09:03:26.536Z,15.49
2022-10-22T09:06:02.643Z,15.56
2022-10-22T09:08:31.554Z,15.69
2022-10-22T09:11:02.179Z,15.81
2022-10-22T09:13:29.247Z,15.92
2022-10-22T09:15:59.279Z,15.97
2022-10-22T09:18:32.119Z,15.99
2022-10-22T09:21:02.508Z,15.97
2022-10-22T09:23:36.689Z,15.96
2022-10-22T09:26:11.645Z,16.02
2022-10-22T09:28:38.188Z,16.07
2022-10-22T09:31:14.392Z,16.13
2022-10-22T09:33:42.996Z,16.19
2022-10-22T09:36:13.981Z,16.26
2022-10-22T09:38:46.087Z,16.35
2022-10-22T09:41:16.321Z,16.47
2022-10-22T09:43:42.906Z,16.61
2022-10-22T09:46:20.446Z,16.76
2022-10-22T09:49:04.116Z,16.84
2022-10-22T09:51:57.064Z,16.86
2022-10-22T09:54:32.686Z,16.96
2022-10-22T09:57:09.825Z,17.05
2022-10-22T09:59:37.249Z,17.17
2022-10-22T10:02:20.031Z,17.16
2022-10-22T10:04:55.925Z,17.24
2022-10-22T10:07:24.278Z,17.46
2022-10-22T10:09:52.877Z,17.75
2022-10-22T10:12:19.574Z,18.06
2022-10-22T10:15:01.365Z,18.36
2022-10-22T10:17:44.560Z,18.70
2022-10-22T10:20:23.804Z,19.03
2022-10-22T10:23:09.026Z,19.26
2022-10-22T10:25:38.749Z,19.39
2022-10-22T10:28:14.641Z,19.41
2022-10-22T10:31:10.566Z,19.41
2022-10-22T10:33:46.529Z,19.43
2022-10-22T10:36:19.525Z,19.42
2022-10-22T10:39:09.693Z,19.43
2022-10-22T10:41:48.403Z,19.54
2022-10-22T10:44:33.764Z,19.66
2022-10-22T10:47:10.845Z,19.79
2022-10-22T10:49:37.283Z,19.92
2022-10-22T10:52:22.669Z,19.86
2022-10-22T10:55:07.659Z,19.74
2022-10-22T10:57:52.394Z,19.68
2022-10-22T11:00:19.716Z,19.64
2022-10-22T11:02:46.432Z,19.62
2022-10-22T11:05:24.143Z,19.68
2022-10-22T11:07:57.015Z,19.78
2022-10-22T11:10:29.710Z,19.81
2022-10-22T11:13:01.678Z,19.84
2022-10-22T11:15:33.065Z,19.93
2022-10-22T11:18:19.777Z,20.01
2022-10-22T11:20:52.775Z,20.10
2022-10-22T11:23:49.096Z,20.06
2022-10-22T11:26:27.194Z,20.17
2022-10-22T11:28:59.215Z,20.31
2022-10-22T11:31:26.612Z,20.41
2022-10-22T11:34:10.164Z,20.48
2022-10-22T11:36:48.879Z,20.53
2022-10-22T11:39:37.635Z,20.54
2022-10-22T11:42:06.077Z,20.61
2022-10-22T11:44:44.741Z,20.72
2022-10-22T11:47:24.125Z,20.80
2022-10-22T11:49:57.008Z,20.76
2022-10-22T11:52:32.710Z,20.66
2022-10-22T11:55:19.383Z,20.67
2022-10-22T11:57:47.225Z,20.69
2022-10-22T12:00:33.800Z,20.74
2022-10-22T12:03:15.175Z,20.84
2022-10-22T12:05:42.392Z,20.91
2022-10-22T12:08:13.441Z,20.94
2022-10-22T12:10:50.556Z,21.07
2022-10-22T12:13:26.677Z,21.27
2022-10-22T12:15:56.024Z,21.45
2022-10-22T12:18:27.902Z,21.52
2022-10-22T12:20:54.825Z,21.49
2022-10-22T12:23:26.239Z,21.50
2022-10-22T12:25:52.921Z,21.46
2022-10-22T12:28:22.523Z,21.39
2022-10-22T12:30:59.467Z,21.32
2022-10-22T12:33:27.694Z,21.31
2022-10-22T12:35:56.999Z,21.28
2022-10-22T12:38:24.944Z,21.23
2022-10-22T12:40:54.150Z,21.09
2022-10-22T12:43:32.920Z,21.07
2022-10-22T12:45:59.755Z,21.06
2022-10-22T12:48:30.446Z,21.04
2022-10-22T12:51:01.171Z,20.97
2022-10-22T12:53:34.392Z,20.90
2022-10-22T12:56:03.352Z,20.80
2022-10-22T12:58:33.998Z,20.71
2022-10-22T13:01:01.563Z,20.64
2022-10-22T13:03:37.989Z,20.56
2022-10-22T13:06:35.332Z,20.46
2022-10-22T13:09:20.440Z,20.37
2022-10-22T13:12:01.100Z,20.30
2022-10-22T13:14:29.806Z,20.22
2022-10-22T13:17:28.754Z,20.13
2022-10-22T13:19:55.257Z,20.03
2022-10-22T13:22:33.253Z,19.93
2022-10-22T13:25:24.546Z,19.79
2022-10-22T13:28:01.578Z,19.67
2022-10-22T13:30:32.643Z,19.60
2022-10-22T13:32:59.475Z,19.49
2022-10-22T13:35:27.706Z,19.36
2022-10-22T13:37:54.485Z,19.22
2022-10-22T13:40:21.505Z,19.07
2022-10-22T13:42:48.160Z,18.94
2022-10-22T13:45:14.862Z,18.85
2022-10-22T13:47:42.848Z,18.73
2022-10-22T13:50:14.249Z,18.63
2022-10-22T13:52:49.802Z,18.56
2022-10-22T13:55:18.508Z,18.48
2022-10-22T13:57:45.361Z,18.40
2022-10-22T14:00:14.302Z,18.31
2022-10-22T14:02:42.681Z,18.24
2022-10-22T14:05:10.750Z,18.16
2022-10-22T14:07:38.621Z,18.14
2022-10-22T14:10:24.421Z,18.13
2022-10-22T14:12:53.431Z,18.12
2022-10-22T14:15:23.162Z,18.10
2022-10-22T14:17:54.508Z,18.06
2022-10-22T14:20:25.272Z,18.03
2022-10-22T14:22:52.320Z,18.00
2022-10-22T14:25:20.692Z,17.99
2022-10-22T14:27:47.388Z,17.94
2022-10-22T14:30:17.713Z,17.87
2022-10-22T14:32:44.943Z,17.78
2022-10-22T14:35:13.264Z,17.72
2022-10-22T14:37:40.267Z,17.68
2022-10-22T14:40:07.848Z,17.64
2022-10-22T14:42:38.238Z,17.56
2022-10-22T14:45:11.071Z,17.48
2022-10-22T14:47:37.613Z,17.39
2022-10-22T14:50:06.169Z,17.32
2022-10-22T14:52:32.864Z,17.24
2022-10-22T14:54:59.501Z,17.18
2022-10-22T14:57:27.623Z,17.12
2022-10-22T14:59:54.355Z,17.06
2022-10-22T15:02:21.173Z,16.99
2022-10-22T15:04:48.351Z,16.94
2022-10-22T15:07:19.004Z,16.88
2022-10-22T15:09:45.621Z,16.85
2022-10-22T15:12:12.220Z,16.82
2022-10-22T15:14:38.782Z,16.80
2022-10-22T15:17:05.405Z,16.80
2022-10-22T15:19:31.940Z,16.78
2022-10-22T15:21:58.669Z,16.74
2022-10-22T15:24:25.256Z,16.69
2022-10-22T15:26:53.453Z,16.65
2022-10-22T15:29:20.079Z,16.60
2022-10-22T15:31:51.383Z,16.55
2022-10-22T15:34:18.876Z,16.51
2022-10-22T15:36:45.760Z,16.51
2022-10-22T15:39:12.630Z,16.49
2022-10-22T15:41:39.249Z,16.45
2022-10-22T15:44:05.935Z,16.40
2022-10-22T15:46:34.715Z,16.36
2022-10-22T15:49:02.042Z,16.35
2022-10-22T15:51:28.610Z,16.38
2022-10-22T15:53:56.707Z,16.41
2022-10-22T15:56:23.995Z,16.42
2022-10-22T15:58:58.488Z,16.43
2022-10-22T16:01:25.548Z,16.42
2022-10-22T16:03:59.411Z,16.39
2022-10-22T16:06:26.890Z,16.34
2022-10-22T16:08:54.651Z,16.31
2022-10-22T16:11:21.566Z,16.28
2022-10-22T16:13:48.100Z,16.30
2022-10-22T16:16:14.675Z,16.31
2022-10-22T16:18:41.310Z,16.30
2022-10-22T16:21:11.637Z,16.28
2022-10-22T16:23:38.130Z,16.25
2022-10-22T16:26:04.869Z,16.23
2022-10-22T16:28:31.458Z,16.20
2022-10-22T16:31:01.121Z,16.18
2022-10-22T16:33:27.724Z,16.18
2022-10-22T16:35:54.198Z,16.22
2022-10-22T16:38:20.690Z,16.24
2022-10-22T16:40:47.324Z,16.28
2022-10-22T16:43:13.949Z,16.28
2022-10-22T16:45:46.337Z,16.26
2022-10-22T16:48:12.979Z,16.26
2022-10-22T16:50:39.480Z,16.30
2022-10-22T16:53:05.937Z,16.32
2022-10-22T16:55:41.626Z,16.36
2022-10-22T16:58:08.260Z,16.40
2022-10-22T17:00:35.025Z,16.42
2022-10-22T17:03:01.694Z,16.46
2022-10-22T17:05:28.357Z,16.49
2022-10-22T17:07:55.142Z,16.52
2022-10-22T17:12:55.920Z,16.45
2022-10-22T17:15:22.523Z,16.41
2022-10-22T17:17:53.171Z,16.37
2022-10-22T17:20:24.394Z,16.33
2022-10-22T17:22:51.028Z,16.30
2022-10-22T17:25:21.551Z,16.26
2022-10-22T17:27:48.539Z,16.23
2022-10-22T17:30:17.292Z,16.21
2022-10-22T17:32:44.310Z,16.18
2022-10-22T17:35:11.708Z,16.15
2022-10-22T17:37:39.821Z,16.13
2022-10-22T17:40:07.198Z,16.11
2022-10-22T17:42:33.718Z,16.03
2022-10-22T17:45:00.519Z,15.98
2022-10-22T17:47:27.094Z,15.94
2022-10-22T17:49:53.617Z,15.91
2022-10-22T17:52:20.239Z,15.90
2022-10-22T17:54:47.826Z,15.88
2022-10-22T17:57:14.318Z,15.85
2022-10-22T17:59:40.902Z,15.83
2022-10-22T18:02:09.665Z,15.82
2022-10-22T18:04:36.703Z,15.80
2022-10-22T18:07:05.501Z,15.79
2022-10-22T18:09:33.055Z,15.79
2022-10-22T18:12:01.097Z,15.77
2022-10-22T18:14:27.935Z,15.76
2022-10-22T18:16:54.533Z,15.75
2022-10-22T18:19:23.837Z,15.65
2022-10-22T18:21:50.748Z,15.63
2022-10-22T18:24:17.401Z,15.62
2022-10-22T18:26:44.430Z,15.60
2022-10-22T18:29:14.034Z,15.55
2022-10-22T18:31:40.624Z,15.46
2022-10-22T18:34:07.316Z,15.45
2022-10-22T18:36:34.056Z,15.47
2022-10-22T18:39:02.004Z,15.50
2022-10-22T18:41:29.769Z,15.52
2022-10-22T18:43:57.876Z,15.47
2022-10-22T18:46:25.211Z,15.45
2022-10-22T18:48:52.941Z,15.44
2022-10-22T18:51:19.554Z,15.42
2022-10-22T18:53:59.136Z,15.32
2022-10-22T18:56:32.284Z,15.28
2022-10-22T18:58:59.095Z,15.27
2022-10-22T19:01:29.481Z,15.25
2022-10-22T19:03:57.310Z,15.22
2022-10-22T19:06:33.318Z,15.19
2022-10-22T19:09:03.646Z,15.15
2022-10-22T19:11:30.793Z,15.11
2022-10-22T19:13:57.815Z,15.06
2022-10-22T19:16:25.429Z,15.02
2022-10-22T19:18:54.141Z,14.97
2022-10-22T19:21:21.266Z,14.94
2022-10-22T19:23:48.834Z,14.94
2022-10-22T19:26:18.357Z,14.95
2022-10-22T19:28:47.815Z,14.95
2022-10-22T19:31:16.699Z,14.94
2022-10-22T19:33:43.425Z,14.93
2022-10-22T19:36:11.697Z,14.92
2022-10-22T19:38:39.319Z,14.91
2022-10-22T19:41:06.725Z,14.90
2022-10-22T19:43:33.405Z,14.90
2022-10-22T19:46:00.033Z,14.86
2022-10-22T19:48:28.211Z,14.81
2022-10-22T19:51:02.494Z,14.79
2022-10-22T19:53:29.834Z,14.80
2022-10-22T19:56:01.200Z,14.83
2022-10-22T19:58:30.289Z,14.84
2022-10-22T20:00:56.962Z,14.79
2022-10-22T20:03:23.691Z,14.77
2022-10-22T20:05:54.477Z,14.74
2022-10-22T20:08:21.215Z,14.71
2022-10-22T20:10:48.669Z,14.70
2022-10-22T20:13:15.792Z,14.67
2022-10-22T20:15:42.337Z,14.65
2022-10-22T20:18:09.039Z,14.62
2022-10-22T20:20:38.792Z,14.60
2022-10-22T20:23:06.762Z,14.59
2022-10-22T20:25:34.589Z,14.57
2022-10-22T20:28:01.783Z,14.58
2022-10-22T20:30:28.243Z,14.59
2022-10-22T20:32:56.030Z,14.56
2022-10-22T20:35:22.577Z,14.54
2022-10-22T20:37:53.801Z,14.52
2022-10-22T20:40:20.545Z,14.50
2022-10-22T20:42:49.064Z,14.49
2022-10-22T20:45:15.928Z,14.48
2022-10-22T20:47:51.349Z,14.47
2022-10-22T20:50:20.728Z,14.46
2022-10-22T20:52:48.291Z,14.46
2022-10-22T20:57:46.390Z,14.44
2022-10-22T21:00:13.170Z,14.43
2022-10-22T21:02:39.843Z,14.41
2022-10-22T21:05:06.796Z,14.39
2022-10-22T21:07:33.505Z,14.36
2022-10-22T21:10:00.259Z,14.37
2022-10-22T21:12:27.028Z,14.37
2022-10-22T21:14:53.590Z,14.37
2022-10-22T21:17:20.324Z,14.37
2022-10-22T21:19:46.830Z,14.38
2022-10-22T21:22:13.394Z,14.37
2022-10-22T21:24:40.703Z,14.37
2022-10-22T21:27:07.453Z,14.36
2022-10-22T21:29:33.978Z,14.35
2022-10-22T21:32:00.610Z,14.34
2022-10-22T21:34:27.192Z,14.32
2022-10-22T21:36:53.816Z,14.29
2022-10-22T21:39:20.635Z,14.23
2022-10-22T21:41:48.605Z,14.19
2022-10-22T21:44:15.744Z,14.15
2022-10-22T21:46:42.367Z,14.08
2022-10-22T21:49:10.212Z,14.04
2022-10-22T21:51:37.802Z,14.00
2022-10-22T21:54:04.727Z,13.97
2022-10-22T21:56:32.990Z,13.94
2022-10-22T21:59:00.238Z,13.91
2022-10-22T22:01:26.924Z,13.89
2022-10-22T22:03:53.667Z,13.87
2022-10-22T22:06:22.062Z,13.86
2022-10-22T22:08:52.418Z,13.85
2022-10-22T22:11:20.381Z,13.85
2022-10-22T22:13:53.313Z,13.85
2022-10-22T22:16:23.960Z,13.85
2022-10-22T22:18:53.819Z,13.89
2022-10-22T22:21:20.885Z,13.92
2022-10-22T22:23:48.521Z,13.89
2022-10-22T22:26:16.497Z,13.86
2022-10-22T22:28:43.205Z,13.85
2022-10-22T22:31:12.846Z,13.85
2022-10-22T22:33:39.380Z,13.83
2022-10-22T22:36:06.121Z,13.81
2022-10-22T22:38:32.842Z,13.78
2022-10-22T22:41:02.208Z,13.76
2022-10-22T22:43:31.838Z,13.77
2022-10-22T22:45:59.485Z,13.79
2022-10-22T22:48:26.165Z,13.80
2022-10-22T22:50:52.762Z,13.76
2022-10-22T22:53:19.366Z,13.70
2022-10-22T22:55:46.146Z,13.72
2022-10-22T22:58:12.732Z,13.74
2022-10-22T23:03:10.781Z,13.72
2022-10-22T23:05:37.441Z,13.67
2022-10-22T23:08:04.017Z,13.67
2022-10-22T23:10:30.625Z,13.68
2022-10-22T23:12:58.603Z,13.68
2022-10-22T23:15:34.494Z,13.67
2022-10-22T23:18:02.168Z,13.66
2022-10-22T23:20:28.786Z,13.66
2022-10-22T23:22:57.706Z,13.65
2022-10-22T23:25:24.174Z,13.60
2022-10-22T23:27:50.676Z,13.54
2022-10-22T23:30:17.243Z,13.52
2022-10-22T23:32:43.799Z,13.48
2022-10-22T23:35:10.395Z,13.44
2022-10-22T23:37:39.351Z,13.40
2022-10-22T23:40:09.325Z,13.34
2022-10-22T23:45:10.316Z,13.20
2022-10-22T23:47:37.264Z,13.17
2022-10-22T23:50:03.943Z,13.09
2022-10-22T23:52:30.546Z,13.04
2022-10-22T23:55:04.976Z,12.93
2022-10-22T23:57:31.483Z,12.89
2022-10-22T23:59:59.305Z,12.86
